Terminal Aerodrome Forecast
Issued by NWS

Home | Current Version | Previous Version | Text Only | Print | Product List | Glossary On
Versions: 1 2 3 4 5 6 7 8 9 10 11 12 13 14 15 16 17 18 19 20 21 22 23 24 25 26 27 28 29 30 31 32 33 34 35 36 37 38 39 40 41 42 43 44 45
000
FTUS43 KGRB 171734
TAFRHI
TAF
KRHI 171734Z 1718/1818 24013G22KT P6SM BKN200 WS019/28050KT
     FM172100 24012G20KT P6SM SKC WS018/28050KT
     FM180300 25007KT P6SM SCT150
     FM181500 23007G14KT P6SM FEW020 BKN100=

USA.gov is the U.S. government's official web portal to all federal, state and local government web resources and services.